createdAt,value
2023-04-01T00:01:14.999Z,0.53
2023-04-01T00:03:42.439Z,0.50
2023-04-01T00:06:11.089Z,0.60
2023-04-01T00:08:38.178Z,0.70
2023-04-01T00:11:05.336Z,0.47
2023-04-01T00:13:32.582Z,0.30
2023-04-01T00:16:00.343Z,0.33
2023-04-01T00:18:27.736Z,0.30
2023-04-01T00:20:54.996Z,0.50
2023-04-01T00:23:22.248Z,0.40
2023-04-01T00:25:50.396Z,0.50
2023-04-01T00:28:18.224Z,0.30
2023-04-01T00:30:45.339Z,0.47
2023-04-01T00:33:12.678Z,0.40
2023-04-01T00:35:39.779Z,0.30
2023-04-01T00:38:07.660Z,0.40
2023-04-01T00:40:34.769Z,0.40
2023-04-01T00:43:02.311Z,0.30
2023-04-01T00:45:29.670Z,0.37
2023-04-01T00:47:57.364Z,0.50
2023-04-01T00:50:26.689Z,0.33
2023-04-01T00:52:54.509Z,0.50
2023-04-01T00:55:22.740Z,0.50
2023-04-01T00:57:50.871Z,0.30
2023-04-01T01:00:18.882Z,0.50
2023-04-01T01:02:47.306Z,0.40
2023-04-01T01:05:15.585Z,0.77
2023-04-01T01:07:48.493Z,0.50
2023-04-01T01:10:35.771Z,0.40
2023-04-01T01:13:10.443Z,0.50
2023-04-01T01:15:48.981Z,0.70
2023-04-01T01:18:28.239Z,0.60
2023-04-01T01:21:07.301Z,0.40
2023-04-01T01:23:43.591Z,0.50
2023-04-01T01:26:25.521Z,0.60
2023-04-01T01:29:11.203Z,0.40
2023-04-01T01:32:04.392Z,0.57
2023-04-01T01:34:34.456Z,0.50
2023-04-01T01:37:05.126Z,0.30
2023-04-01T01:39:33.264Z,0.30
2023-04-01T01:42:03.152Z,0.47
2023-04-01T01:44:31.618Z,0.40
2023-04-01T01:46:59.274Z,0.40
2023-04-01T01:49:27.081Z,0.40
2023-04-01T01:51:54.248Z,0.30
2023-04-01T01:54:21.718Z,0.23
2023-04-01T01:56:50.837Z,0.40
2023-04-01T01:59:19.445Z,0.47
2023-04-01T02:01:50.342Z,0.40
2023-04-01T02:04:18.927Z,0.40
2023-04-01T02:06:58.098Z,0.43
2023-04-01T02:09:25.364Z,0.40
2023-04-01T02:12:04.951Z,0.40
2023-04-01T02:14:39.029Z,0.43
2023-04-01T02:17:08.865Z,0.47
2023-04-01T02:19:44.473Z,0.40
2023-04-01T02:22:15.417Z,0.40
2023-04-01T02:24:43.705Z,0.50
2023-04-01T02:27:11.961Z,0.40
2023-04-01T02:29:39.131Z,0.53
2023-04-01T02:32:07.319Z,0.40
2023-04-01T02:34:35.130Z,0.50
2023-04-01T02:37:02.481Z,0.60
2023-04-01T02:39:29.630Z,0.47
2023-04-01T02:41:56.739Z,0.60
2023-04-01T02:44:23.899Z,0.43
2023-04-01T02:46:51.140Z,0.50
2023-04-01T02:49:18.308Z,0.50
2023-04-01T02:51:45.632Z,0.30
2023-04-01T02:54:12.865Z,0.57
2023-04-01T02:56:40.047Z,0.60
2023-04-01T02:59:07.241Z,0.37
2023-04-01T03:01:34.560Z,0.43
2023-04-01T03:04:01.724Z,0.60
2023-04-01T03:06:28.779Z,0.50
2023-04-01T03:08:55.926Z,0.40
2023-04-01T03:11:23.027Z,0.33
2023-04-01T03:13:50.395Z,0.40
2023-04-01T03:16:17.732Z,0.40
2023-04-01T03:18:45.116Z,0.40
2023-04-01T03:21:19.941Z,0.50
2023-04-01T03:23:47.066Z,0.60
2023-04-01T03:26:14.512Z,0.40
2023-04-01T03:28:41.646Z,0.60
2023-04-01T03:31:08.905Z,0.50
2023-04-01T03:33:36.030Z,0.50
2023-04-01T03:36:04.350Z,0.60
2023-04-01T03:38:31.589Z,0.50
2023-04-01T03:40:58.732Z,0.70
2023-04-01T03:43:26.668Z,0.60
2023-04-01T03:45:55.421Z,0.70
2023-04-01T03:48:22.583Z,0.47
2023-04-01T03:50:49.716Z,0.40
2023-04-01T03:55:45.703Z,0.60
2023-04-01T03:58:13.406Z,0.50
2023-04-01T04:00:40.537Z,0.70
2023-04-01T04:03:08.174Z,0.70
2023-04-01T04:05:35.524Z,0.77
2023-04-01T04:08:02.929Z,0.47
2023-04-01T04:10:30.243Z,0.77
2023-04-01T04:12:57.392Z,0.80
2023-04-01T04:15:24.779Z,0.50
2023-04-01T04:17:52.017Z,0.60
2023-04-01T04:20:19.224Z,0.63
2023-04-01T04:22:46.284Z,0.70
2023-04-01T04:25:13.389Z,0.43
2023-04-01T04:27:40.662Z,0.83
2023-04-01T04:30:08.623Z,0.57
2023-04-01T04:32:36.046Z,0.50
2023-04-01T04:35:03.240Z,0.73
2023-04-01T04:37:30.352Z,0.70
2023-04-01T04:39:57.401Z,0.50
2023-04-01T04:42:24.525Z,0.60
2023-04-01T04:44:51.719Z,0.60
2023-04-01T04:47:18.808Z,0.43
2023-04-01T04:49:46.141Z,0.60
2023-04-01T04:52:13.205Z,0.40
2023-04-01T04:54:40.344Z,0.57
2023-04-01T04:57:07.494Z,0.47
2023-04-01T04:59:34.770Z,0.60
2023-04-01T05:02:02.973Z,0.70
2023-04-01T05:04:30.248Z,0.43
2023-04-01T05:06:57.347Z,0.50
2023-04-01T05:09:24.602Z,0.37
2023-04-01T05:11:51.754Z,0.60
2023-04-01T05:14:19.239Z,0.57
2023-04-01T05:16:46.516Z,0.60
2023-04-01T05:19:13.645Z,0.40
2023-04-01T05:21:40.824Z,0.60
2023-04-01T05:24:10.723Z,0.50
2023-04-01T05:26:37.969Z,0.50
2023-04-01T05:29:05.796Z,0.40
2023-04-01T05:31:32.928Z,0.30
2023-04-01T05:34:00.182Z,0.60
2023-04-01T05:36:27.299Z,0.50
2023-04-01T05:38:57.192Z,0.60
2023-04-01T05:41:24.269Z,0.50
2023-04-01T05:43:51.445Z,0.83
2023-04-01T05:46:18.522Z,0.50
2023-04-01T05:48:45.676Z,0.40
2023-04-01T05:51:16.379Z,0.47
2023-04-01T05:53:52.123Z,0.50
2023-04-01T05:56:19.242Z,0.60
2023-04-01T05:58:49.216Z,0.40
2023-04-01T06:01:16.739Z,0.20
2023-04-01T06:03:44.157Z,0.43
2023-04-01T06:06:40.899Z,0.47
2023-04-01T06:09:18.957Z,0.40
2023-04-01T06:11:58.070Z,0.63
2023-04-01T06:14:45.370Z,0.40
2023-04-01T06:17:12.422Z,0.70
2023-04-01T06:19:57.887Z,0.40
2023-04-01T06:22:33.847Z,0.50
2023-04-01T06:25:20.347Z,0.63
2023-04-01T06:27:50.475Z,0.40
2023-04-01T06:30:33.458Z,0.60
2023-04-01T06:33:00.619Z,0.47
2023-04-01T06:35:40.035Z,0.53
2023-04-01T06:38:17.299Z,0.47
2023-04-01T06:40:44.383Z,0.70
2023-04-01T06:43:17.731Z,0.67
2023-04-01T06:45:47.852Z,0.87
2023-04-01T06:48:14.956Z,0.67
2023-04-01T06:51:02.435Z,0.70
2023-04-01T06:53:44.832Z,0.50
2023-04-01T06:56:14.595Z,0.70
2023-04-01T06:58:43.748Z,0.50
2023-04-01T07:01:20.389Z,0.60
2023-04-01T07:04:06.425Z,0.50
2023-04-01T07:06:36.982Z,0.80
2023-04-01T07:09:07.110Z,0.77
2023-04-01T07:11:39.424Z,0.60
2023-04-01T07:14:12.134Z,0.60
2023-04-01T07:16:48.570Z,0.70
2023-04-01T07:19:33.197Z,0.50
2023-04-01T07:22:07.796Z,0.50
2023-04-01T07:24:37.649Z,0.50
2023-04-01T07:27:04.777Z,0.50
2023-04-01T07:29:31.952Z,0.60
2023-04-01T07:32:01.850Z,0.40
2023-04-01T07:34:29.925Z,0.40
2023-04-01T07:37:35.777Z,0.40
2023-04-01T07:40:11.754Z,0.30
2023-04-01T07:42:38.993Z,0.57
2023-04-01T07:45:22.670Z,0.70
2023-04-01T07:47:52.598Z,0.30
2023-04-01T07:50:19.655Z,0.70
2023-04-01T07:53:05.547Z,0.57
2023-04-01T07:55:51.527Z,0.40
2023-04-01T07:58:21.687Z,0.67
2023-04-01T08:00:48.821Z,0.50
2023-04-01T08:03:27.131Z,0.70
2023-04-01T08:05:54.345Z,0.40
2023-04-01T08:08:29.835Z,0.60
2023-04-01T08:11:19.749Z,0.63
2023-04-01T08:13:49.884Z,0.50
2023-04-01T08:16:19.812Z,0.50
2023-04-01T08:18:58.584Z,0.50
2023-04-01T08:21:29.060Z,0.60
2023-04-01T08:23:58.253Z,0.60
2023-04-01T08:26:34.505Z,0.53
2023-04-01T08:29:16.033Z,0.60
2023-04-01T08:32:21.864Z,0.43
2023-04-01T08:34:53.063Z,0.40
2023-04-01T08:37:23.286Z,0.40
2023-04-01T08:39:53.013Z,0.50
2023-04-01T08:42:23.051Z,0.40
2023-04-01T08:45:01.324Z,0.63
2023-04-01T08:47:37.386Z,0.40
2023-04-01T08:50:23.098Z,0.57
2023-04-01T08:52:59.649Z,0.50
2023-04-01T08:55:32.377Z,0.30
2023-04-01T08:58:18.090Z,0.40
2023-04-01T09:00:49.687Z,0.60
2023-04-01T09:03:26.540Z,0.83
2023-04-01T09:05:56.785Z,0.67
2023-04-01T09:08:33.474Z,0.60
2023-04-01T09:11:03.606Z,0.40
2023-04-01T09:13:45.793Z,0.50
2023-04-01T09:16:31.407Z,0.60
2023-04-01T09:19:11.057Z,0.70
2023-04-01T09:22:01.618Z,0.40
2023-04-01T09:24:37.742Z,0.40
2023-04-01T09:27:07.591Z,0.43
2023-04-01T09:29:53.022Z,0.57
2023-04-01T09:32:42.774Z,0.40
2023-04-01T09:35:24.094Z,0.30
2023-04-01T09:38:00.287Z,0.40
2023-04-01T09:40:27.312Z,0.43
2023-04-01T09:43:13.167Z,0.57
2023-04-01T09:45:59.491Z,0.60
2023-04-01T09:48:26.615Z,0.60
2023-04-01T09:51:12.451Z,0.30
2023-04-01T09:53:42.573Z,0.57
2023-04-01T09:56:21.807Z,0.40
2023-04-01T09:59:00.893Z,0.60
2023-04-01T10:01:40.011Z,0.50
2023-04-01T10:04:16.511Z,0.30
2023-04-01T10:06:52.738Z,0.50
2023-04-01T10:09:25.593Z,0.43
2023-04-01T10:11:52.692Z,0.50
2023-04-01T10:14:38.502Z,0.30
2023-04-01T10:17:05.544Z,0.30
2023-04-01T10:19:35.458Z,0.40
2023-04-01T10:22:19.351Z,0.57
2023-04-01T10:24:46.379Z,0.63
2023-04-01T10:27:38.631Z,0.37
2023-04-01T10:30:06.022Z,0.47
2023-04-01T10:32:33.094Z,0.80
2023-04-01T10:35:11.699Z,0.60
2023-04-01T10:37:44.800Z,0.50
2023-04-01T10:40:17.786Z,0.40
2023-04-01T10:42:50.819Z,0.50
2023-04-01T10:45:20.891Z,0.70
2023-04-01T10:47:59.922Z,0.47
2023-04-01T10:50:45.488Z,0.40
2023-04-01T10:53:15.693Z,0.90
2023-04-01T10:55:50.042Z,0.40
2023-04-01T10:58:22.899Z,0.27
2023-04-01T11:01:02.137Z,0.40
2023-04-01T11:03:32.546Z,0.60
2023-04-01T11:05:59.739Z,0.27
2023-04-01T11:09:02.394Z,0.60
2023-04-01T11:11:48.255Z,0.50
2023-04-01T11:14:27.562Z,0.37
2023-04-01T11:17:13.191Z,0.50
2023-04-01T11:19:40.221Z,0.70
2023-04-01T11:22:23.957Z,0.50
2023-04-01T11:25:10.125Z,0.43
2023-04-01T11:27:49.408Z,0.50
2023-04-01T11:30:25.343Z,0.50
2023-04-01T11:32:58.197Z,0.50
2023-04-01T11:35:43.842Z,0.60
2023-04-01T11:38:29.691Z,0.60
2023-04-01T11:41:02.249Z,0.60
2023-04-01T11:43:39.830Z,0.80
2023-04-01T11:46:12.624Z,0.80
2023-04-01T11:48:51.774Z,0.70
2023-04-01T11:51:30.865Z,0.20
2023-04-01T11:54:03.801Z,0.37
2023-04-01T11:56:57.111Z,0.73
2023-04-01T11:59:41.359Z,0.57
2023-04-01T12:02:08.552Z,0.30
2023-04-01T12:04:38.755Z,0.33
2023-04-01T12:07:18.046Z,0.40
2023-04-01T12:09:54.225Z,0.60
2023-04-01T12:12:40.165Z,0.40
2023-04-01T12:15:18.745Z,0.50
2023-04-01T12:18:04.441Z,0.30
2023-04-01T12:20:31.577Z,0.40
2023-04-01T12:23:22.010Z,0.20
2023-04-01T12:26:07.877Z,0.50
2023-04-01T12:28:53.834Z,0.50
2023-04-01T12:31:24.745Z,0.60
2023-04-01T12:33:57.678Z,0.50
2023-04-01T12:36:49.278Z,0.60
2023-04-01T12:39:21.349Z,0.30
2023-04-01T12:41:54.232Z,0.50
2023-04-01T12:44:21.376Z,0.50
2023-04-01T12:47:01.255Z,0.57
2023-04-01T12:49:47.236Z,0.60
2023-04-01T12:52:16.473Z,0.53
2023-04-01T12:55:09.591Z,1.00
2023-04-01T12:57:55.586Z,0.80
2023-04-01T13:00:29.621Z,0.50
2023-04-01T13:02:56.705Z,0.57
2023-04-01T13:05:42.455Z,0.60
2023-04-01T13:08:17.067Z,0.50
2023-04-01T13:11:03.457Z,0.40
2023-04-01T13:13:50.806Z,0.60
2023-04-01T13:16:37.228Z,0.80
2023-04-01T13:19:15.780Z,0.70
2023-04-01T13:21:49.964Z,0.40
2023-04-01T13:24:23.135Z,0.47
2023-04-01T13:27:08.821Z,0.40
2023-04-01T13:29:42.459Z,0.43
2023-04-01T13:32:40.763Z,0.50
2023-04-01T13:35:11.050Z,0.20
2023-04-01T13:37:47.248Z,0.20
2023-04-01T13:40:26.744Z,0.40
2023-04-01T13:43:02.828Z,0.23
2023-04-01T13:45:44.889Z,0.40
2023-04-01T13:48:30.998Z,0.30
2023-04-01T13:50:58.142Z,0.20
2023-04-01T13:53:40.631Z,0.40
2023-04-01T13:56:13.515Z,0.40
2023-04-01T13:59:00.613Z,0.60
2023-04-01T14:01:30.723Z,0.50
2023-04-01T14:04:10.146Z,0.40
2023-04-01T14:06:56.529Z,0.43
2023-04-01T14:09:42.370Z,0.40
2023-04-01T14:12:27.913Z,0.40
2023-04-01T14:15:00.974Z,0.40
2023-04-01T14:17:47.292Z,0.30
2023-04-01T14:20:17.450Z,0.60
2023-04-01T14:22:53.548Z,0.50
2023-04-01T14:25:33.681Z,0.43
2023-04-01T14:28:21.313Z,0.73
2023-04-01T14:30:56.869Z,0.40
2023-04-01T14:33:29.723Z,0.40
2023-04-01T14:35:56.795Z,0.40
2023-04-01T14:38:25.886Z,0.33
2023-04-01T14:41:16.345Z,0.50
2023-04-01T14:43:43.380Z,0.50
2023-04-01T14:46:26.734Z,0.50
2023-04-01T14:49:00.126Z,0.30
2023-04-01T14:51:30.766Z,0.40
2023-04-01T14:54:13.128Z,0.60
2023-04-01T14:56:44.369Z,0.50
2023-04-01T14:59:23.819Z,0.70
2023-04-01T15:02:09.555Z,0.50
2023-04-01T15:04:42.742Z,0.20
2023-04-01T15:07:22.033Z,0.30
2023-04-01T15:10:04.798Z,0.20
2023-04-01T15:12:48.237Z,0.17
2023-04-01T15:15:15.524Z,0.10
2023-04-01T15:18:03.452Z,0.30
2023-04-01T15:20:33.329Z,0.20
2023-04-01T15:23:19.027Z,0.20
2023-04-01T15:25:58.343Z,0.30
2023-04-01T15:28:40.329Z,0.10
2023-04-01T15:31:33.546Z,0.40
2023-04-01T15:34:06.685Z,0.30
2023-04-01T15:36:41.456Z,0.17
2023-04-01T15:39:16.231Z,0.27
2023-04-01T15:42:15.613Z,0.30
2023-04-01T15:44:56.542Z,0.60
2023-04-01T15:47:26.542Z,0.30
2023-04-01T15:49:59.925Z,0.30
2023-04-01T15:52:45.652Z,0.40
2023-04-01T15:55:21.675Z,0.50
2023-04-01T15:57:53.137Z,0.60
2023-04-01T16:00:27.369Z,0.50
2023-04-01T16:03:06.391Z,0.43
2023-04-01T16:05:52.216Z,0.53
2023-04-01T16:08:43.800Z,0.33
2023-04-01T16:11:20.091Z,0.93
2023-04-01T16:13:55.013Z,1.40
2023-04-01T16:16:31.575Z,0.77
2023-04-01T16:18:58.690Z,0.90
2023-04-01T16:21:40.171Z,2.20
2023-04-01T16:24:19.421Z,1.70
2023-04-01T16:26:55.465Z,1.53
2023-04-01T16:29:25.371Z,0.70
2023-04-01T16:32:03.809Z,0.70
2023-04-01T16:34:30.917Z,0.67
2023-04-01T16:37:09.111Z,0.77
2023-04-01T16:39:47.362Z,1.10
2023-04-01T16:42:21.309Z,1.80
2023-04-01T16:44:51.331Z,1.03
2023-04-01T16:47:23.906Z,1.70
2023-04-01T16:49:56.530Z,2.10
2023-04-01T16:52:47.507Z,1.40
2023-04-01T16:55:19.169Z,1.03
2023-04-01T16:57:53.447Z,1.10
2023-04-01T17:00:32.572Z,0.70
2023-04-01T17:03:08.968Z,0.50
2023-04-01T17:05:51.200Z,0.70
2023-04-01T17:08:23.332Z,1.57
2023-04-01T17:10:50.384Z,2.23
2023-04-01T17:13:17.470Z,1.10
2023-04-01T17:15:50.949Z,1.83
2023-04-01T17:18:36.983Z,2.87
2023-04-01T17:21:09.306Z,2.10
2023-04-01T17:23:36.358Z,1.80
2023-04-01T17:26:23.371Z,1.70
2023-04-01T17:28:59.593Z,1.57
2023-04-01T17:31:38.696Z,1.23
2023-04-01T17:34:06.146Z,2.47
2023-04-01T17:36:45.510Z,1.20
2023-04-01T17:39:12.652Z,1.17
2023-04-01T17:41:45.572Z,0.83
2023-04-01T17:44:25.252Z,0.93
2023-04-01T17:47:18.615Z,1.40
2023-04-01T17:49:59.849Z,1.60
2023-04-01T17:52:26.921Z,1.50
2023-04-01T17:55:01.008Z,1.60
2023-04-01T17:58:03.434Z,1.30
2023-04-01T18:00:46.006Z,1.13
2023-04-01T18:03:20.980Z,1.10
2023-04-01T18:05:54.295Z,0.90
2023-04-01T18:08:30.458Z,1.20
2023-04-01T18:11:12.938Z,1.37
2023-04-01T18:13:42.749Z,1.50
2023-04-01T18:16:21.866Z,2.07
2023-04-01T18:19:00.652Z,1.90
2023-04-01T18:21:27.722Z,2.00
2023-04-01T18:24:02.702Z,2.30
2023-04-01T18:26:34.248Z,3.07
2023-04-01T18:29:23.266Z,3.33
2023-04-01T18:31:53.272Z,3.10
2023-04-01T18:34:31.861Z,3.23
2023-04-01T18:37:02.608Z,2.03
2023-04-01T18:39:32.412Z,1.70
2023-04-01T18:42:21.855Z,1.50
2023-04-01T18:44:54.952Z,1.30
2023-04-01T18:47:25.032Z,1.30
2023-04-01T18:50:11.593Z,1.47
2023-04-01T18:52:41.833Z,1.40
2023-04-01T18:55:08.989Z,1.67
2023-04-01T18:57:42.122Z,1.70
2023-04-01T19:00:16.037Z,1.67
2023-04-01T19:02:47.176Z,1.70
2023-04-01T19:05:18.004Z,1.43
2023-04-01T19:07:55.854Z,1.40
2023-04-01T19:10:35.430Z,1.20
2023-04-01T19:13:06.293Z,1.60
2023-04-01T19:15:36.470Z,1.30
2023-04-01T19:18:22.201Z,1.37
2023-04-01T19:20:58.350Z,1.10
2023-04-01T19:23:37.748Z,1.20
2023-04-01T19:26:12.788Z,1.00
2023-04-01T19:28:39.814Z,1.07
2023-04-01T19:31:25.990Z,0.90
2023-04-01T19:34:11.756Z,1.27
2023-04-01T19:36:48.398Z,1.13
2023-04-01T19:39:34.310Z,1.50
2023-04-01T19:42:01.366Z,1.43
2023-04-01T19:44:34.903Z,1.90
2023-04-01T19:47:22.242Z,2.17
2023-04-01T19:50:08.228Z,2.33
2023-04-01T19:52:38.069Z,2.50
2023-04-01T19:55:28.293Z,2.80
2023-04-01T19:57:58.192Z,2.77
2023-04-01T20:00:36.258Z,3.27
2023-04-01T20:03:15.350Z,2.80
2023-04-01T20:05:52.413Z,2.70
2023-04-01T20:08:19.456Z,3.13
2023-04-01T20:11:05.508Z,2.77
2023-04-01T20:13:49.660Z,3.20
2023-04-01T20:16:17.583Z,3.10
2023-04-01T20:18:52.945Z,2.33
2023-04-01T20:21:26.209Z,2.23
2023-04-01T20:23:58.575Z,2.07
2023-04-01T20:26:38.412Z,2.00
2023-04-01T20:29:17.849Z,1.40
2023-04-01T20:31:48.721Z,1.57
2023-04-01T20:34:16.194Z,1.20
2023-04-01T20:37:06.400Z,1.17
2023-04-01T20:39:45.940Z,1.27
2023-04-01T20:42:12.989Z,1.10
2023-04-01T20:44:48.288Z,1.47
2023-04-01T20:47:34.018Z,1.50
2023-04-01T20:50:01.458Z,1.40
2023-04-01T20:52:33.956Z,1.30
2023-04-01T20:55:01.292Z,1.37
2023-04-01T20:57:43.881Z,1.30
2023-04-01T21:00:26.336Z,1.20
2023-04-01T21:02:57.596Z,1.23
2023-04-01T21:05:43.734Z,1.53
2023-04-01T21:08:13.804Z,1.57
2023-04-01T21:10:56.329Z,1.63
2023-04-01T21:13:38.751Z,2.03
2023-04-01T21:16:06.009Z,1.90
2023-04-01T21:18:47.310Z,1.80
2023-04-01T21:21:14.344Z,1.40
2023-04-01T21:24:00.138Z,1.60
2023-04-01T21:26:27.561Z,1.40
2023-04-01T21:29:13.531Z,1.40
2023-04-01T21:31:59.492Z,1.57
2023-04-01T21:34:26.531Z,1.37
2023-04-01T21:36:56.397Z,1.20
2023-04-01T21:39:42.262Z,1.03
2023-04-01T21:42:19.446Z,1.00
2023-04-01T21:45:11.037Z,1.00
2023-04-01T21:47:56.368Z,0.93
2023-04-01T21:50:42.266Z,0.60
2023-04-01T21:53:20.964Z,0.60
2023-04-01T21:55:48.040Z,0.80
2023-04-01T21:58:21.246Z,0.80
2023-04-01T22:01:07.191Z,0.80
2023-04-01T22:03:49.552Z,0.73
2023-04-01T22:06:34.064Z,0.70
2023-04-01T22:09:19.914Z,0.80
2023-04-01T22:12:03.662Z,0.90
2023-04-01T22:14:35.396Z,1.00
2023-04-01T22:17:18.992Z,0.80
2023-04-01T22:19:51.646Z,1.00
2023-04-01T22:22:22.018Z,1.00
2023-04-01T22:25:01.469Z,1.30
2023-04-01T22:27:33.068Z,1.40
2023-04-01T22:30:00.575Z,1.63
2023-04-01T22:32:43.160Z,1.57
2023-04-01T22:35:19.358Z,1.53
2023-04-01T22:37:55.645Z,1.70
2023-04-01T22:40:22.738Z,1.70
2023-04-01T22:42:54.876Z,1.60
2023-04-01T22:45:32.268Z,1.60
2023-04-01T22:48:03.446Z,1.50
2023-04-01T22:50:36.390Z,1.60
2023-04-01T22:53:03.431Z,1.73
2023-04-01T22:55:33.994Z,1.33
2023-04-01T22:58:09.230Z,1.80
2023-04-01T23:00:44.898Z,1.83
2023-04-01T23:03:32.238Z,1.60
2023-04-01T23:06:01.023Z,2.00
2023-04-01T23:08:47.117Z,1.77
2023-04-01T23:11:26.690Z,1.63
2023-04-01T23:14:19.461Z,1.63
2023-04-01T23:16:54.312Z,1.93
2023-04-01T23:19:37.074Z,2.10
2023-04-01T23:22:22.683Z,1.80
2023-04-01T23:24:56.407Z,1.83
2023-04-01T23:27:36.046Z,1.80
2023-04-01T23:30:04.264Z,1.97
2023-04-01T23:32:31.734Z,1.90
2023-04-01T23:35:00.495Z,2.00
2023-04-01T23:37:27.833Z,2.00
2023-04-01T23:39:55.728Z,2.00
2023-04-01T23:42:22.758Z,2.30
2023-04-01T23:44:50.758Z,2.13
2023-04-01T23:47:20.603Z,2.10
2023-04-01T23:49:50.414Z,2.40
2023-04-01T23:52:31.929Z,2.17
2023-04-01T23:55:18.001Z,2.03
2023-04-01T23:58:01.982Z,2.10
